sensor_id;sensor_type;location;lat;lon;timestamp;P1;durP1;ratioP1;P2;durP2;ratioP2
76703;SDS011;70080;44.504;0.168;2023-07-24T00:03:17;1.53;;;1.43;;
76703;SDS011;70080;44.504;0.168;2023-07-24T00:08:50;2.20;;;1.37;;
76703;SDS011;70080;44.504;0.168;2023-07-24T00:14:23;2.00;;;1.50;;
76703;SDS011;70080;44.504;0.168;2023-07-24T00:19:55;4.40;;;1.53;;
76703;SDS011;70080;44.504;0.168;2023-07-24T00:25:28;2.70;;;1.97;;
76703;SDS011;70080;44.504;0.168;2023-07-24T00:31:02;2.00;;;1.30;;
76703;SDS011;70080;44.504;0.168;2023-07-24T00:36:35;3.37;;;1.80;;
76703;SDS011;70080;44.504;0.168;2023-07-24T00:42:09;3.13;;;1.80;;
76703;SDS011;70080;44.504;0.168;2023-07-24T00:47:42;2.00;;;1.37;;
76703;SDS011;70080;44.504;0.168;2023-07-24T00:53:15;2.57;;;1.33;;
76703;SDS011;70080;44.504;0.168;2023-07-24T00:58:48;2.13;;;0.90;;
76703;SDS011;70080;44.504;0.168;2023-07-24T01:04:20;1.13;;;1.00;;
76703;SDS011;70080;44.504;0.168;2023-07-24T01:09:52;3.27;;;1.87;;
76703;SDS011;70080;44.504;0.168;2023-07-24T01:15:26;1.37;;;1.03;;
76703;SDS011;70080;44.504;0.168;2023-07-24T01:20:57;2.40;;;1.30;;
76703;SDS011;70080;44.504;0.168;2023-07-24T01:26:29;1.97;;;1.30;;
76703;SDS011;70080;44.504;0.168;2023-07-24T01:32:02;2.87;;;1.90;;
76703;SDS011;70080;44.504;0.168;2023-07-24T01:37:35;2.17;;;1.33;;
76703;SDS011;70080;44.504;0.168;2023-07-24T01:43:07;2.77;;;1.50;;
76703;SDS011;70080;44.504;0.168;2023-07-24T01:48:38;1.93;;;1.57;;
76703;SDS011;70080;44.504;0.168;2023-07-24T01:54:10;3.40;;;1.83;;
76703;SDS011;70080;44.504;0.168;2023-07-24T01:59:44;3.30;;;1.73;;
76703;SDS011;70080;44.504;0.168;2023-07-24T02:05:15;2.20;;;1.40;;
76703;SDS011;70080;44.504;0.168;2023-07-24T02:10:48;1.97;;;1.53;;
76703;SDS011;70080;44.504;0.168;2023-07-24T02:16:21;2.17;;;1.43;;
76703;SDS011;70080;44.504;0.168;2023-07-24T02:21:52;1.43;;;1.13;;
76703;SDS011;70080;44.504;0.168;2023-07-24T02:27:26;3.03;;;1.37;;
76703;SDS011;70080;44.504;0.168;2023-07-24T02:32:57;2.90;;;1.40;;
76703;SDS011;70080;44.504;0.168;2023-07-24T02:38:30;2.67;;;1.40;;
76703;SDS011;70080;44.504;0.168;2023-07-24T02:44:04;2.37;;;1.57;;
76703;SDS011;70080;44.504;0.168;2023-07-24T02:49:37;3.77;;;1.37;;
76703;SDS011;70080;44.504;0.168;2023-07-24T02:55:09;2.27;;;1.00;;
76703;SDS011;70080;44.504;0.168;2023-07-24T03:00:42;2.60;;;1.83;;
76703;SDS011;70080;44.504;0.168;2023-07-24T03:06:14;2.37;;;1.17;;
76703;SDS011;70080;44.504;0.168;2023-07-24T03:11:47;3.00;;;1.40;;
76703;SDS011;70080;44.504;0.168;2023-07-24T03:17:20;2.33;;;1.40;;
76703;SDS011;70080;44.504;0.168;2023-07-24T03:22:51;1.77;;;1.50;;
76703;SDS011;70080;44.504;0.168;2023-07-24T03:28:24;1.23;;;1.10;;
76703;SDS011;70080;44.504;0.168;2023-07-24T03:33:56;2.00;;;1.30;;
76703;SDS011;70080;44.504;0.168;2023-07-24T03:39:29;3.37;;;1.97;;
76703;SDS011;70080;44.504;0.168;2023-07-24T03:45:03;4.37;;;1.30;;
76703;SDS011;70080;44.504;0.168;2023-07-24T03:50:34;5.00;;;1.70;;
76703;SDS011;70080;44.504;0.168;2023-07-24T03:56:07;2.37;;;1.43;;
76703;SDS011;70080;44.504;0.168;2023-07-24T04:01:39;1.97;;;1.13;;
76703;SDS011;70080;44.504;0.168;2023-07-24T04:07:12;2.17;;;1.03;;
76703;SDS011;70080;44.504;0.168;2023-07-24T04:12:45;2.47;;;1.40;;
76703;SDS011;70080;44.504;0.168;2023-07-24T04:18:17;2.80;;;1.30;;
76703;SDS011;70080;44.504;0.168;2023-07-24T04:23:50;3.93;;;1.07;;
76703;SDS011;70080;44.504;0.168;2023-07-24T04:29:24;2.97;;;1.70;;
76703;SDS011;70080;44.504;0.168;2023-07-24T04:34:54;2.17;;;1.30;;
76703;SDS011;70080;44.504;0.168;2023-07-24T04:40:27;1.50;;;1.40;;
76703;SDS011;70080;44.504;0.168;2023-07-24T04:46:00;3.27;;;1.83;;
76703;SDS011;70080;44.504;0.168;2023-07-24T04:51:33;2.53;;;1.60;;
76703;SDS011;70080;44.504;0.168;2023-07-24T04:57:05;3.27;;;1.73;;
76703;SDS011;70080;44.504;0.168;2023-07-24T05:02:36;2.80;;;1.23;;
76703;SDS011;70080;44.504;0.168;2023-07-24T05:08:08;4.00;;;1.90;;
76703;SDS011;70080;44.504;0.168;2023-07-24T05:13:41;3.17;;;2.07;;
76703;SDS011;70080;44.504;0.168;2023-07-24T05:19:13;3.30;;;2.00;;
76703;SDS011;70080;44.504;0.168;2023-07-24T05:24:47;3.37;;;1.97;;
76703;SDS011;70080;44.504;0.168;2023-07-24T05:30:18;3.50;;;2.37;;
76703;SDS011;70080;44.504;0.168;2023-07-24T05:35:51;5.73;;;2.97;;
76703;SDS011;70080;44.504;0.168;2023-07-24T05:41:24;5.90;;;2.70;;
76703;SDS011;70080;44.504;0.168;2023-07-24T05:46:59;6.67;;;3.10;;
76703;SDS011;70080;44.504;0.168;2023-07-24T05:52:30;10.67;;;3.27;;
76703;SDS011;70080;44.504;0.168;2023-07-24T05:58:02;5.93;;;3.30;;
76703;SDS011;70080;44.504;0.168;2023-07-24T06:03:35;5.77;;;3.10;;
76703;SDS011;70080;44.504;0.168;2023-07-24T06:09:07;6.23;;;3.60;;
76703;SDS011;70080;44.504;0.168;2023-07-24T06:14:40;5.27;;;2.83;;
76703;SDS011;70080;44.504;0.168;2023-07-24T06:20:13;7.03;;;2.77;;
76703;SDS011;70080;44.504;0.168;2023-07-24T06:25:46;6.60;;;2.80;;
76703;SDS011;70080;44.504;0.168;2023-07-24T06:31:19;5.37;;;3.20;;
76703;SDS011;70080;44.504;0.168;2023-07-24T06:36:51;4.77;;;3.00;;
76703;SDS011;70080;44.504;0.168;2023-07-24T06:42:24;4.93;;;2.80;;
76703;SDS011;70080;44.504;0.168;2023-07-24T06:47:56;4.60;;;2.97;;
76703;SDS011;70080;44.504;0.168;2023-07-24T06:53:28;3.17;;;2.63;;
76703;SDS011;70080;44.504;0.168;2023-07-24T06:59:01;5.17;;;2.80;;
76703;SDS011;70080;44.504;0.168;2023-07-24T07:04:33;5.50;;;2.57;;
76703;SDS011;70080;44.504;0.168;2023-07-24T07:10:06;5.90;;;2.00;;
76703;SDS011;70080;44.504;0.168;2023-07-24T07:15:38;6.03;;;2.60;;
76703;SDS011;70080;44.504;0.168;2023-07-24T07:21:11;3.77;;;2.47;;
76703;SDS011;70080;44.504;0.168;2023-07-24T07:26:46;3.43;;;2.23;;
76703;SDS011;70080;44.504;0.168;2023-07-24T07:32:17;6.03;;;2.47;;
76703;SDS011;70080;44.504;0.168;2023-07-24T07:37:50;3.13;;;2.33;;
76703;SDS011;70080;44.504;0.168;2023-07-24T07:43:24;3.57;;;2.60;;
76703;SDS011;70080;44.504;0.168;2023-07-24T07:48:57;7.80;;;3.00;;
76703;SDS011;70080;44.504;0.168;2023-07-24T07:54:31;4.40;;;1.93;;
76703;SDS011;70080;44.504;0.168;2023-07-24T08:00:03;6.23;;;2.20;;
76703;SDS011;70080;44.504;0.168;2023-07-24T08:05:36;3.87;;;1.97;;
76703;SDS011;70080;44.504;0.168;2023-07-24T08:11:08;7.33;;;1.77;;
76703;SDS011;70080;44.504;0.168;2023-07-24T08:16:42;5.67;;;1.50;;
76703;SDS011;70080;44.504;0.168;2023-07-24T08:22:15;3.43;;;1.60;;
76703;SDS011;70080;44.504;0.168;2023-07-24T08:27:48;3.33;;;1.77;;
76703;SDS011;70080;44.504;0.168;2023-07-24T08:33:22;-1.00;;;-1.00;;
76703;SDS011;70080;44.504;0.168;2023-07-24T08:38:55;4.57;;;1.77;;
76703;SDS011;70080;44.504;0.168;2023-07-24T08:44:26;1.63;;;1.50;;
76703;SDS011;70080;44.504;0.168;2023-07-24T08:50:00;3.50;;;1.67;;
76703;SDS011;70080;44.504;0.168;2023-07-24T08:55:32;4.13;;;1.67;;
76703;SDS011;70080;44.504;0.168;2023-07-24T09:01:04;6.53;;;2.00;;
76703;SDS011;70080;44.504;0.168;2023-07-24T09:06:37;2.83;;;1.70;;
76703;SDS011;70080;44.504;0.168;2023-07-24T09:12:12;4.47;;;1.70;;
76703;SDS011;70080;44.504;0.168;2023-07-24T09:17:47;2.17;;;1.87;;
76703;SDS011;70080;44.504;0.168;2023-07-24T09:23:13;2.43;;;1.43;;
76703;SDS011;70080;44.504;0.168;2023-07-24T09:28:50;3.17;;;1.20;;
76703;SDS011;70080;44.504;0.168;2023-07-24T09:34:17;13.83;;;1.20;;
76703;SDS011;70080;44.504;0.168;2023-07-24T09:39:51;10.70;;;0.87;;
76703;SDS011;70080;44.504;0.168;2023-07-24T09:45:24;1.20;;;0.63;;
76703;SDS011;70080;44.504;0.168;2023-07-24T09:50:59;0.83;;;0.60;;
76703;SDS011;70080;44.504;0.168;2023-07-24T09:56:30;6.17;;;0.70;;
76703;SDS011;70080;44.504;0.168;2023-07-24T10:02:03;2.87;;;0.60;;
76703;SDS011;70080;44.504;0.168;2023-07-24T10:07:36;4.40;;;0.97;;
76703;SDS011;70080;44.504;0.168;2023-07-24T10:13:11;2.17;;;0.70;;
76703;SDS011;70080;44.504;0.168;2023-07-24T10:18:43;0.90;;;0.73;;
76703;SDS011;70080;44.504;0.168;2023-07-24T10:24:14;0.33;;;0.30;;
76703;SDS011;70080;44.504;0.168;2023-07-24T10:35:21;0.73;;;0.37;;
76703;SDS011;70080;44.504;0.168;2023-07-24T10:41:00;0.87;;;0.40;;
76703;SDS011;70080;44.504;0.168;2023-07-24T10:52:00;2.40;;;0.60;;
76703;SDS011;70080;44.504;0.168;2023-07-24T10:57:32;0.73;;;0.50;;
76703;SDS011;70080;44.504;0.168;2023-07-24T11:03:07;1.17;;;0.60;;
76703;SDS011;70080;44.504;0.168;2023-07-24T11:08:40;1.50;;;0.83;;
76703;SDS011;70080;44.504;0.168;2023-07-24T11:14:13;1.13;;;0.80;;
76703;SDS011;70080;44.504;0.168;2023-07-24T11:19:44;0.70;;;0.70;;
76703;SDS011;70080;44.504;0.168;2023-07-24T11:25:17;1.17;;;0.63;;
76703;SDS011;70080;44.504;0.168;2023-07-24T11:30:50;3.40;;;1.00;;
76703;SDS011;70080;44.504;0.168;2023-07-24T11:36:23;0.83;;;0.80;;
76703;SDS011;70080;44.504;0.168;2023-07-24T11:41:55;1.53;;;0.97;;
76703;SDS011;70080;44.504;0.168;2023-07-24T11:47:28;2.23;;;0.80;;
76703;SDS011;70080;44.504;0.168;2023-07-24T11:53:00;1.43;;;0.70;;
76703;SDS011;70080;44.504;0.168;2023-07-24T11:58:31;6.70;;;1.20;;
76703;SDS011;70080;44.504;0.168;2023-07-24T12:04:02;1.73;;;1.03;;
76703;SDS011;70080;44.504;0.168;2023-07-24T12:09:34;0.77;;;0.77;;
76703;SDS011;70080;44.504;0.168;2023-07-24T12:15:09;1.97;;;1.00;;
76703;SDS011;70080;44.504;0.168;2023-07-24T12:20:43;1.47;;;1.10;;
76703;SDS011;70080;44.504;0.168;2023-07-24T12:26:15;2.03;;;0.93;;
76703;SDS011;70080;44.504;0.168;2023-07-24T12:31:49;2.20;;;1.17;;
76703;SDS011;70080;44.504;0.168;2023-07-24T12:37:22;1.57;;;1.47;;
76703;SDS011;70080;44.504;0.168;2023-07-24T12:42:56;-1.00;;;-1.00;;
76703;SDS011;70080;44.504;0.168;2023-07-24T12:48:28;4.00;;;1.50;;
76703;SDS011;70080;44.504;0.168;2023-07-24T12:54:01;0.83;;;0.83;;
76703;SDS011;70080;44.504;0.168;2023-07-24T12:59:34;2.00;;;1.07;;
76703;SDS011;70080;44.504;0.168;2023-07-24T13:05:07;4.83;;;1.37;;
76703;SDS011;70080;44.504;0.168;2023-07-24T13:10:39;5.57;;;2.00;;
76703;SDS011;70080;44.504;0.168;2023-07-24T13:16:12;3.40;;;1.23;;
76703;SDS011;70080;44.504;0.168;2023-07-24T13:21:43;3.53;;;1.23;;
76703;SDS011;70080;44.504;0.168;2023-07-24T13:27:17;1.07;;;0.80;;
76703;SDS011;70080;44.504;0.168;2023-07-24T13:32:48;2.33;;;1.07;;
76703;SDS011;70080;44.504;0.168;2023-07-24T13:38:21;5.07;;;1.50;;
76703;SDS011;70080;44.504;0.168;2023-07-24T13:43:53;3.80;;;1.13;;
76703;SDS011;70080;44.504;0.168;2023-07-24T13:49:27;3.30;;;1.47;;
76703;SDS011;70080;44.504;0.168;2023-07-24T13:54:59;6.13;;;0.97;;
76703;SDS011;70080;44.504;0.168;2023-07-24T14:00:32;0.87;;;0.80;;
76703;SDS011;70080;44.504;0.168;2023-07-24T14:06:06;-1.00;;;-1.00;;
76703;SDS011;70080;44.504;0.168;2023-07-24T14:11:37;6.10;;;1.07;;
76703;SDS011;70080;44.504;0.168;2023-07-24T14:17:09;3.10;;;1.20;;
76703;SDS011;70080;44.504;0.168;2023-07-24T14:22:41;2.40;;;1.00;;
76703;SDS011;70080;44.504;0.168;2023-07-24T14:28:13;1.23;;;1.03;;
76703;SDS011;70080;44.504;0.168;2023-07-24T14:33:45;1.50;;;0.87;;
76703;SDS011;70080;44.504;0.168;2023-07-24T14:39:18;1.33;;;0.80;;
76703;SDS011;70080;44.504;0.168;2023-07-24T14:44:51;1.00;;;0.70;;
76703;SDS011;70080;44.504;0.168;2023-07-24T14:50:23;2.30;;;1.37;;
76703;SDS011;70080;44.504;0.168;2023-07-24T14:55:56;1.47;;;1.10;;
76703;SDS011;70080;44.504;0.168;2023-07-24T15:01:29;4.63;;;1.10;;
76703;SDS011;70080;44.504;0.168;2023-07-24T15:07:00;1.80;;;1.10;;
76703;SDS011;70080;44.504;0.168;2023-07-24T15:12:33;2.00;;;1.00;;
76703;SDS011;70080;44.504;0.168;2023-07-24T15:18:06;0.93;;;0.90;;
76703;SDS011;70080;44.504;0.168;2023-07-24T15:23:38;1.90;;;1.03;;
76703;SDS011;70080;44.504;0.168;2023-07-24T15:29:12;3.13;;;1.23;;
76703;SDS011;70080;44.504;0.168;2023-07-24T15:34:44;6.07;;;1.00;;
76703;SDS011;70080;44.504;0.168;2023-07-24T15:40:16;4.43;;;1.03;;
76703;SDS011;70080;44.504;0.168;2023-07-24T15:45:48;3.23;;;1.00;;
76703;SDS011;70080;44.504;0.168;2023-07-24T15:51:21;-1.00;;;-1.00;;
76703;SDS011;70080;44.504;0.168;2023-07-24T15:56:54;4.20;;;1.27;;
76703;SDS011;70080;44.504;0.168;2023-07-24T16:02:27;3.53;;;1.30;;
76703;SDS011;70080;44.504;0.168;2023-07-24T16:07:59;2.20;;;0.77;;
76703;SDS011;70080;44.504;0.168;2023-07-24T16:13:33;1.40;;;0.80;;
76703;SDS011;70080;44.504;0.168;2023-07-24T16:19:13;4.27;;;0.83;;
76703;SDS011;70080;44.504;0.168;2023-07-24T16:24:39;1.73;;;0.90;;
76703;SDS011;70080;44.504;0.168;2023-07-24T16:30:12;2.17;;;1.30;;
76703;SDS011;70080;44.504;0.168;2023-07-24T16:35:45;2.20;;;1.00;;
76703;SDS011;70080;44.504;0.168;2023-07-24T16:41:17;2.43;;;1.10;;
76703;SDS011;70080;44.504;0.168;2023-07-24T16:46:50;1.50;;;0.80;;
76703;SDS011;70080;44.504;0.168;2023-07-24T16:52:23;1.70;;;0.73;;
76703;SDS011;70080;44.504;0.168;2023-07-24T16:57:56;5.03;;;1.70;;
76703;SDS011;70080;44.504;0.168;2023-07-24T17:03:29;-1.00;;;-1.00;;
76703;SDS011;70080;44.504;0.168;2023-07-24T17:09:01;1.87;;;0.87;;
76703;SDS011;70080;44.504;0.168;2023-07-24T17:14:34;2.23;;;1.57;;
76703;SDS011;70080;44.504;0.168;2023-07-24T17:20:06;1.87;;;0.90;;
76703;SDS011;70080;44.504;0.168;2023-07-24T17:31:11;1.27;;;0.73;;
76703;SDS011;70080;44.504;0.168;2023-07-24T17:36:44;1.67;;;1.17;;
76703;SDS011;70080;44.504;0.168;2023-07-24T17:42:18;1.30;;;0.70;;
76703;SDS011;70080;44.504;0.168;2023-07-24T17:47:50;2.50;;;0.80;;
76703;SDS011;70080;44.504;0.168;2023-07-24T17:53:22;1.80;;;0.90;;
76703;SDS011;70080;44.504;0.168;2023-07-24T17:58:55;2.90;;;1.53;;
76703;SDS011;70080;44.504;0.168;2023-07-24T18:04:26;1.67;;;0.63;;
76703;SDS011;70080;44.504;0.168;2023-07-24T18:09:59;0.67;;;0.67;;
76703;SDS011;70080;44.504;0.168;2023-07-24T18:15:32;1.53;;;1.17;;
76703;SDS011;70080;44.504;0.168;2023-07-24T18:21:07;3.47;;;1.00;;
76703;SDS011;70080;44.504;0.168;2023-07-24T18:26:39;1.67;;;0.80;;
76703;SDS011;70080;44.504;0.168;2023-07-24T18:32:11;0.93;;;0.80;;
76703;SDS011;70080;44.504;0.168;2023-07-24T18:37:43;1.77;;;0.73;;
76703;SDS011;70080;44.504;0.168;2023-07-24T18:43:16;0.97;;;0.60;;
76703;SDS011;70080;44.504;0.168;2023-07-24T18:48:49;1.67;;;1.03;;
76703;SDS011;70080;44.504;0.168;2023-07-24T18:54:22;3.00;;;1.30;;
76703;SDS011;70080;44.504;0.168;2023-07-24T18:59:54;2.43;;;0.73;;
76703;SDS011;70080;44.504;0.168;2023-07-24T19:05:27;0.93;;;0.80;;
76703;SDS011;70080;44.504;0.168;2023-07-24T19:10:59;2.60;;;0.93;;
76703;SDS011;70080;44.504;0.168;2023-07-24T19:16:32;2.00;;;0.93;;
76703;SDS011;70080;44.504;0.168;2023-07-24T19:22:04;3.10;;;0.50;;
76703;SDS011;70080;44.504;0.168;2023-07-24T19:27:36;0.90;;;0.70;;
76703;SDS011;70080;44.504;0.168;2023-07-24T19:33:10;0.90;;;0.80;;
76703;SDS011;70080;44.504;0.168;2023-07-24T19:38:42;2.80;;;0.83;;
76703;SDS011;70080;44.504;0.168;2023-07-24T19:44:16;0.40;;;0.30;;
76703;SDS011;70080;44.504;0.168;2023-07-24T19:49:51;2.00;;;0.77;;
76703;SDS011;70080;44.504;0.168;2023-07-24T19:55:21;0.67;;;0.57;;
76703;SDS011;70080;44.504;0.168;2023-07-24T20:00:55;0.20;;;0.20;;
76703;SDS011;70080;44.504;0.168;2023-07-24T20:06:29;1.33;;;0.40;;
76703;SDS011;70080;44.504;0.168;2023-07-24T20:12:03;2.87;;;0.47;;
76703;SDS011;70080;44.504;0.168;2023-07-24T20:17:36;1.93;;;0.87;;
76703;SDS011;70080;44.504;0.168;2023-07-24T20:23:08;0.50;;;0.50;;
76703;SDS011;70080;44.504;0.168;2023-07-24T20:28:41;0.60;;;0.60;;
76703;SDS011;70080;44.504;0.168;2023-07-24T20:34:13;5.57;;;0.93;;
76703;SDS011;70080;44.504;0.168;2023-07-24T20:39:46;2.63;;;1.33;;
76703;SDS011;70080;44.504;0.168;2023-07-24T20:45:19;1.27;;;0.60;;
76703;SDS011;70080;44.504;0.168;2023-07-24T20:50:53;4.17;;;1.47;;
76703;SDS011;70080;44.504;0.168;2023-07-24T20:56:24;1.33;;;0.53;;
76703;SDS011;70080;44.504;0.168;2023-07-24T21:01:57;4.93;;;0.70;;
76703;SDS011;70080;44.504;0.168;2023-07-24T21:07:30;2.43;;;1.17;;
76703;SDS011;70080;44.504;0.168;2023-07-24T21:13:03;2.33;;;0.60;;
76703;SDS011;70080;44.504;0.168;2023-07-24T21:18:35;1.17;;;0.90;;
76703;SDS011;70080;44.504;0.168;2023-07-24T21:24:07;5.23;;;1.10;;
76703;SDS011;70080;44.504;0.168;2023-07-24T21:29:40;2.40;;;0.63;;
76703;SDS011;70080;44.504;0.168;2023-07-24T21:35:13;2.57;;;1.17;;
76703;SDS011;70080;44.504;0.168;2023-07-24T21:40:45;2.20;;;1.23;;
76703;SDS011;70080;44.504;0.168;2023-07-24T21:46:18;1.17;;;0.60;;
76703;SDS011;70080;44.504;0.168;2023-07-24T21:51:50;3.30;;;0.57;;
76703;SDS011;70080;44.504;0.168;2023-07-24T21:57:22;2.13;;;0.73;;
76703;SDS011;70080;44.504;0.168;2023-07-24T22:02:54;2.27;;;0.70;;
76703;SDS011;70080;44.504;0.168;2023-07-24T22:08:27;2.07;;;0.77;;
76703;SDS011;70080;44.504;0.168;2023-07-24T22:13:59;2.37;;;0.70;;
76703;SDS011;70080;44.504;0.168;2023-07-24T22:19:32;5.40;;;0.83;;
76703;SDS011;70080;44.504;0.168;2023-07-24T22:25:06;3.60;;;0.60;;
76703;SDS011;70080;44.504;0.168;2023-07-24T22:30:39;2.53;;;1.03;;
76703;SDS011;70080;44.504;0.168;2023-07-24T22:36:12;0.63;;;0.33;;
76703;SDS011;70080;44.504;0.168;2023-07-24T22:41:45;1.53;;;0.53;;
76703;SDS011;70080;44.504;0.168;2023-07-24T22:47:18;0.57;;;0.57;;
76703;SDS011;70080;44.504;0.168;2023-07-24T22:52:52;3.40;;;1.17;;
76703;SDS011;70080;44.504;0.168;2023-07-24T22:58:26;8.13;;;1.47;;
76703;SDS011;70080;44.504;0.168;2023-07-24T23:03:58;1.03;;;0.63;;
76703;SDS011;70080;44.504;0.168;2023-07-24T23:09:30;3.30;;;1.10;;
76703;SDS011;70080;44.504;0.168;2023-07-24T23:15:03;2.87;;;0.60;;
76703;SDS011;70080;44.504;0.168;2023-07-24T23:20:35;2.03;;;1.00;;
76703;SDS011;70080;44.504;0.168;2023-07-24T23:26:07;4.23;;;0.90;;
76703;SDS011;70080;44.504;0.168;2023-07-24T23:31:39;2.63;;;1.10;;
76703;SDS011;70080;44.504;0.168;2023-07-24T23:37:12;3.70;;;1.33;;
76703;SDS011;70080;44.504;0.168;2023-07-24T23:42:46;3.27;;;0.70;;
76703;SDS011;70080;44.504;0.168;2023-07-24T23:48:19;1.30;;;0.70;;
76703;SDS011;70080;44.504;0.168;2023-07-24T23:53:51;1.87;;;0.80;;
76703;SDS011;70080;44.504;0.168;2023-07-24T23:59:25;4.63;;;1.10;;
